Time;durP1;ratioP1;P1;durP2;ratioP2;P2;SDS_P1;SDS_P2;PMS_P1;PMS_P2;Temp;Humidity;BMP_temperature;BMP_pressure;BME280_temperature;BME280_humidity;BME280_pressure;Samples;Min_cycle;Max_cycle;Signal;HPM_P1;HPM_P2
2022/12/11 00:00:06;;;;;;;9.63;5.40;;;1.50;99.90;;;;;;4996068;28;20266;-84
2022/12/11 00:02:32;;;;;;;14.37;4.40;;;-0.40;99.90;;;;;;4978337;28;20175;-83
2022/12/11 00:04:58;;;;;;;10.50;4.80;;;-0.50;99.90;;;;;;4995742;28;20621;-83
2022/12/11 00:07:23;;;;;;;5.23;4.80;;;0.60;99.90;;;;;;4978173;28;20632;-83
2022/12/11 00:09:49;;;;;;;4.20;3.63;;;0.10;99.90;;;;;;4978594;28;20632;-84
2022/12/11 00:12:15;;;;;;;3.20;2.93;;;-0.30;99.90;;;;;;4973267;28;20192;-83
2022/12/11 00:14:40;;;;;;;8.23;4.20;;;0.90;99.90;;;;;;4943166;28;20192;-83
2022/12/11 00:17:06;;;;;;;15.60;4.43;;;0.90;99.90;;;;;;4954513;28;20203;-83
2022/12/11 00:19:31;;;;;;;5.80;3.40;;;-0.50;99.90;;;;;;4962632;28;20752;-82
2022/12/11 00:21:57;;;;;;;10.40;6.50;;;0.20;99.90;;;;;;4979336;28;20216;-82
2022/12/11 00:24:23;;;;;;;3.30;2.93;;;-0.60;99.90;;;;;;4982144;28;20221;-83
2022/12/11 00:26:49;;;;;;;1.77;1.67;;;;;;;;;;4943468;28;20186;-83
2022/12/11 00:29:14;;;;;;;7.20;3.83;;;-0.60;99.90;;;;;;4958869;28;20195;-84
2022/12/11 00:31:41;;;;;;;3.03;2.83;;;0.80;99.90;;;;;;4943313;29;20201;-83
2022/12/11 00:34:07;;;;;;;7.83;2.83;;;-0.60;99.90;;;;;;4957071;29;20191;-84
2022/12/11 00:36:33;;;;;;;8.57;3.77;;;;;;;;;;4927207;29;20183;-83
2022/12/11 00:39:00;;;;;;;5.83;2.70;;;-0.60;99.90;;;;;;4961136;28;20300;-83
2022/12/11 00:41:26;;;;;;;2.87;2.17;;;-0.50;99.90;;;;;;4994611;28;20251;-84
2022/12/11 00:43:52;;;;;;;11.27;3.37;;;0.90;99.90;;;;;;4977812;28;20178;-83
2022/12/11 00:46:17;;;;;;;3.07;2.87;;;-0.60;99.90;;;;;;4977604;28;20188;-83
2022/12/11 00:48:44;;;;;;;8.00;4.17;;;-0.60;99.90;;;;;;4979068;28;20191;-83
2022/12/11 00:51:10;;;;;;;11.77;4.00;;;-0.60;99.90;;;;;;4975489;28;20178;-81
2022/12/11 00:53:37;;;;;;;3.43;3.13;;;0.50;99.90;;;;;;4941898;28;20655;-83
2022/12/11 00:56:15;;;;;;;6.53;4.53;;;0.10;99.90;;;;;;4958175;28;20280;-82
2022/12/11 00:58:41;;;;;;;5.60;4.63;;;-0.50;99.90;;;;;;4958123;28;20264;-83
2022/12/11 01:01:09;;;;;;;17.73;4.97;;;1.00;99.90;;;;;;4948663;28;20198;-82
2022/12/11 01:03:36;;;;;;;6.10;4.73;;;0.50;99.90;;;;;;4976072;28;20174;-83
2022/12/11 01:06:02;;;;;;;3.00;2.67;;;;;;;;;;4975624;28;20241;-83
2022/12/11 01:08:28;;;;;;;5.20;3.80;;;-0.60;99.90;;;;;;4975010;28;20182;-83
2022/12/11 01:11:04;;;;;;;2.13;2.00;;;-0.60;99.90;;;;;;4958234;28;20650;-83
2022/12/11 01:13:31;;;;;;;2.47;2.30;;;;;;;;;;4975583;28;20276;-83
2022/12/11 01:15:56;;;;;;;4.63;3.93;;;0.20;99.90;;;;;;4975187;28;20185;-83
2022/12/11 01:18:22;;;;;;;4.47;1.90;;;-0.60;99.90;;;;;;4974233;28;20190;-83
2022/12/11 01:20:48;;;;;;;3.43;2.93;;;-0.40;99.90;;;;;;4974691;28;20189;-83
2022/12/11 01:23:13;;;;;;;3.57;2.80;;;1.30;99.90;;;;;;4974590;28;20305;-82
2022/12/11 01:25:40;;;;;;;2.27;2.07;;;-0.60;99.90;;;;;;4974035;28;20675;-83
2022/12/11 01:28:06;;;;;;;3.20;3.00;;;1.40;99.90;;;;;;4974683;28;20183;-83
2022/12/11 01:30:32;;;;;;;1.90;1.80;;;2.30;99.90;;;;;;4957129;28;20184;-83
2022/12/11 01:32:59;;;;;;;3.83;3.47;;;1.20;99.90;;;;;;4957033;28;20323;-83
2022/12/11 01:35:25;;;;;;;6.73;2.67;;;1.80;99.90;;;;;;4956789;28;20222;-83
2022/12/11 01:37:51;;;;;;;10.90;3.03;;;1.40;99.90;;;;;;4974240;28;20654;-83
2022/12/11 01:40:19;;;;;;;6.00;4.23;;;-0.10;99.90;;;;;;4957145;28;20184;-83
2022/12/11 01:42:44;;;;;;;2.43;1.83;;;-0.70;99.90;;;;;;4974649;28;20186;-83
2022/12/11 01:45:51;;;;;;;3.50;1.87;;;0.10;99.90;;;;;;4973937;28;20700;-83
2022/12/11 01:48:21;;;;;;;3.13;1.97;;;-0.70;99.90;;;;;;4968897;28;20198;-83
2022/12/11 01:50:54;;;;;;;8.53;3.80;;;0.70;99.90;;;;;;4957214;28;20178;-83
2022/12/11 01:53:25;;;;;;;3.60;3.23;;;-0.70;99.90;;;;;;4974176;28;20272;-85
2022/12/11 01:55:53;;;;;;;4.50;3.60;;;1.80;99.90;;;;;;4974415;28;20203;-83
2022/12/11 01:58:21;;;;;;;5.03;4.10;;;0.50;99.90;;;;;;4973850;28;20267;-83
2022/12/11 02:00:46;;;;;;;2.20;2.10;;;-0.30;99.90;;;;;;4974167;28;20282;-83
2022/12/11 02:03:13;;;;;;;5.90;3.83;;;0.90;99.90;;;;;;4973985;28;20611;-83
2022/12/11 02:05:38;;;;;;;4.93;2.10;;;1.10;99.90;;;;;;4973593;28;20212;-82
2022/12/11 02:08:06;;;;;;;2.23;2.03;;;-0.80;99.90;;;;;;4956802;28;20266;-83
2022/12/11 02:10:45;;;;;;;4.00;2.33;;;-0.70;99.90;;;;;;4956578;28;20198;-83
2022/12/11 02:13:23;;;;;;;9.33;4.53;;;-0.70;99.90;;;;;;4974321;28;20253;-82
2022/12/11 02:16:02;;;;;;;6.77;3.83;;;-0.60;99.90;;;;;;4973974;28;20172;-84
2022/12/11 02:18:51;;;;;;;3.67;3.00;;;-0.70;99.90;;;;;;4956429;28;20182;-83
2022/12/11 02:21:35;;;;;;;5.60;2.93;;;-0.70;99.90;;;;;;4973930;28;20623;-82
2022/12/11 02:24:22;;;;;;;2.73;2.57;;;-0.70;99.90;;;;;;4958924;28;20172;-82
2022/12/11 02:27:03;;;;;;;2.47;1.87;;;-0.80;99.90;;;;;;4973421;28;20167;-82
2022/12/11 02:29:36;;;;;;;4.70;2.73;;;-0.80;99.90;;;;;;4973822;28;20256;-82
2022/12/11 02:32:08;;;;;;;5.43;3.13;;;-0.70;99.90;;;;;;4973786;28;20168;-82
2022/12/11 02:34:41;;;;;;;2.77;2.57;;;-0.80;99.90;;;;;;4973798;28;20176;-82
2022/12/11 02:37:13;;;;;;;3.07;2.67;;;0.10;99.90;;;;;;4956816;28;20594;-82
2022/12/11 02:39:42;;;;;;;3.80;3.23;;;0.90;99.90;;;;;;4956403;28;20186;-82
2022/12/11 02:42:09;;;;;;;3.53;3.23;;;-0.60;99.90;;;;;;4940547;28;20670;-82
2022/12/11 02:44:36;;;;;;;2.20;2.00;;;1.40;99.90;;;;;;4940208;28;20218;-82
2022/12/11 02:47:06;;;;;;;3.03;1.90;;;-0.40;99.90;;;;;;4956888;28;20179;-81
2022/12/11 02:49:32;;;;;;;4.47;3.10;;;-0.80;99.90;;;;;;4973165;28;20187;-83
2022/12/11 02:52:02;;;;;;;2.10;2.00;;;-0.80;99.90;;;;;;4974019;28;20179;-82
2022/12/11 02:54:32;;;;;;;2.27;1.90;;;-0.80;99.90;;;;;;4956556;28;20189;-84
2022/12/11 02:57:07;;;;;;;4.10;3.70;;;-0.80;99.90;;;;;;4977192;28;20625;-82
2022/12/11 02:59:39;;;;;;;1.60;1.47;;;-0.80;99.90;;;;;;4959700;28;20522;-83
2022/12/11 03:02:05;;;;;;;3.57;2.80;;;-0.90;99.90;;;;;;4959600;28;20524;-82
2022/12/11 03:04:33;;;;;;;4.17;2.73;;;0.10;99.90;;;;;;4959217;28;20738;-83
2022/12/11 03:07:10;;;;;;;3.33;3.00;;;-0.80;99.90;;;;;;4978974;28;20201;-82
2022/12/11 03:09:38;;;;;;;2.40;2.20;;;-0.50;99.90;;;;;;4979550;28;20195;-82
2022/12/11 03:12:05;;;;;;;3.33;2.57;;;-0.90;99.90;;;;;;4977640;28;20181;-83
2022/12/11 03:14:31;;;;;;;2.87;2.30;;;-0.90;99.90;;;;;;4976713;28;20258;-83
2022/12/11 03:17:07;;;;;;;4.90;3.07;;;-0.30;99.90;;;;;;4976873;28;20631;-82
2022/12/11 03:19:42;;;;;;;2.07;1.93;;;0.00;99.90;;;;;;4975831;28;20185;-83
2022/12/11 03:22:27;;;;;;;2.03;1.90;;;-0.90;99.90;;;;;;4959379;28;20589;-82
2022/12/11 03:25:05;;;;;;;10.70;2.60;;;-0.80;99.90;;;;;;4959227;28;20572;-82
2022/12/11 03:27:44;;;;;;;1.97;1.93;;;-0.80;99.90;;;;;;4976482;28;20201;-83
2022/12/11 03:30:14;;;;;;;8.03;3.17;;;-0.60;99.90;;;;;;4959169;28;20197;-83
2022/12/11 03:32:52;;;;;;;1.80;1.70;;;-0.80;99.90;;;;;;4959030;28;20268;-83
2022/12/11 03:35:20;;;;;;;2.07;1.97;;;-0.90;99.90;;;;;;4983039;28;20200;-82
2022/12/11 03:37:48;;;;;;;3.10;2.60;;;0.60;99.90;;;;;;4977682;28;20192;-83
2022/12/11 03:40:17;;;;;;;5.17;2.37;;;-0.10;99.90;;;;;;4995291;28;20174;-82
2022/12/11 03:42:47;;;;;;;3.07;2.77;;;0.60;99.90;;;;;;4995452;28;20207;-82
2022/12/11 03:45:14;;;;;;;2.57;2.33;;;0.00;99.90;;;;;;4995549;28;20211;-82
2022/12/11 03:47:41;;;;;;;5.40;3.67;;;-0.10;99.90;;;;;;4980770;28;20192;-82
2022/12/11 03:50:10;;;;;;;4.03;3.20;;;-0.30;99.90;;;;;;4988055;28;20186;-82
2022/12/11 03:52:38;;;;;;;7.50;2.80;;;-0.10;99.90;;;;;;4977716;28;20203;-83
2022/12/11 03:55:06;;;;;;;2.17;2.03;;;-0.50;99.90;;;;;;4995135;28;20228;-82
2022/12/11 03:57:35;;;;;;;5.37;2.90;;;-0.90;99.90;;;;;;4977622;28;20242;-83
2022/12/11 04:00:03;;;;;;;3.73;2.40;;;1.20;99.90;;;;;;4994291;28;20186;-82
2022/12/11 04:02:29;;;;;;;11.23;3.77;;;0.10;99.90;;;;;;4955749;28;20191;-82
2022/12/11 04:04:55;;;;;;;9.03;4.23;;;-0.30;99.90;;;;;;4977830;28;20560;-82
2022/12/11 04:07:21;;;;;;;2.80;2.57;;;-0.90;99.90;;;;;;4930018;29;20195;-83
2022/12/11 04:09:46;;;;;;;3.20;2.97;;;1.20;99.90;;;;;;4939151;29;20254;-82
2022/12/11 04:12:12;;;;;;;4.87;3.20;;;2.80;99.90;;;;;;4939374;29;20208;-82
2022/12/11 04:25:35;;;;;;;10.07;4.73;;;-1.00;99.90;;;;;;4966560;28;20573;-82
2022/12/11 04:28:00;;;;;;;3.63;2.83;;;-1.00;99.90;;;;;;4961109;28;20200;-83
2022/12/11 04:30:26;;;;;;;5.50;2.40;;;-0.30;99.90;;;;;;4994970;28;20519;-83
2022/12/11 04:32:53;;;;;;;6.53;4.00;;;0.20;99.90;;;;;;4977241;28;20270;-83
2022/12/11 04:35:20;;;;;;;3.80;1.87;;;1.70;99.90;;;;;;4994464;28;20222;-83
2022/12/11 04:37:46;;;;;;;6.97;4.23;;;;;;;;;;4994151;28;20177;-83
2022/12/11 04:40:15;;;;;;;6.00;2.10;;;-1.00;99.90;;;;;;4961312;28;20214;-83
2022/12/11 04:42:41;;;;;;;11.20;4.10;;;-1.00;99.90;;;;;;4976932;28;20199;-84
2022/12/11 04:45:07;;;;;;;2.53;2.33;;;1.30;99.90;;;;;;4965394;28;20667;-83
2022/12/11 04:47:35;;;;;;;7.13;3.73;;;-1.10;99.90;;;;;;4975084;28;20227;-83
2022/12/11 04:50:02;;;;;;;2.87;2.60;;;-1.00;99.90;;;;;;4993355;28;20194;-83
2022/12/11 04:52:28;;;;;;;3.63;2.67;;;-0.30;99.90;;;;;;4961192;28;20610;-83
2022/12/11 04:54:53;;;;;;;7.17;3.00;;;0.00;99.90;;;;;;4948634;29;20229;-83
2022/12/11 04:57:20;;;;;;;6.13;3.17;;;-0.40;99.90;;;;;;4950957;29;20271;-83
2022/12/11 04:59:46;;;;;;;5.53;3.60;;;-0.30;99.90;;;;;;4922428;29;20183;-83
2022/12/11 05:02:12;;;;;;;2.97;2.73;;;1.30;99.90;;;;;;4938324;29;20175;-83
2022/12/11 05:04:37;;;;;;;5.80;3.13;;;-0.40;99.90;;;;;;4938409;29;20230;-83
2022/12/11 05:07:03;;;;;;;5.50;3.80;;;0.00;99.90;;;;;;4938187;29;20194;-83
2022/12/11 05:09:29;;;;;;;7.33;5.33;;;-0.50;99.90;;;;;;4955167;29;20263;-83
2022/12/11 05:11:55;;;;;;;8.37;4.17;;;-1.10;99.90;;;;;;4953804;29;20582;-84
2022/12/11 05:14:21;;;;;;;3.87;3.07;;;1.20;99.90;;;;;;4953912;29;20562;-83
2022/12/11 05:16:46;;;;;;;7.97;3.80;;;-1.20;99.90;;;;;;4954005;28;20623;-84
2022/12/11 05:19:12;;;;;;;9.70;4.87;;;1.30;99.90;;;;;;4938084;29;20213;-83
2022/12/11 05:21:38;;;;;;;5.13;3.50;;;0.80;99.90;;;;;;4938282;29;20627;-83
2022/12/11 05:24:05;;;;;;;5.33;3.83;;;-1.20;99.90;;;;;;4954719;29;20192;-83
2022/12/11 05:26:30;;;;;;;3.77;3.27;;;-1.20;99.90;;;;;;4958060;29;20665;-82
2022/12/11 05:28:56;;;;;;;10.60;5.73;;;-0.10;99.90;;;;;;4956184;29;20183;-82
2022/12/11 05:31:24;;;;;;;4.27;3.90;;;0.60;99.90;;;;;;4954467;29;20180;-83
2022/12/11 05:33:51;;;;;;;2.47;2.27;;;-1.10;99.90;;;;;;4962973;28;20190;-84
2022/12/11 05:36:20;;;;;;;10.97;6.20;;;-0.90;99.90;;;;;;4955050;28;20198;-83
2022/12/11 05:38:46;;;;;;;4.63;3.83;;;1.00;99.90;;;;;;4947482;28;20602;-84
2022/12/11 05:41:14;;;;;;;3.17;2.80;;;-1.10;99.90;;;;;;4965556;28;20283;-83
2022/12/11 05:43:41;;;;;;;3.07;2.87;;;-1.20;99.90;;;;;;4963930;28;20191;-83
2022/12/11 05:46:14;;;;;;;3.07;2.63;;;-1.20;99.90;;;;;;4946146;28;20209;-83
2022/12/11 05:48:40;;;;;;;3.63;3.33;;;-1.20;99.90;;;;;;4971486;28;20180;-84
2022/12/11 05:51:07;;;;;;;12.27;7.87;;;-1.20;99.90;;;;;;4967070;28;20198;-84
2022/12/11 05:53:34;;;;;;;11.10;4.40;;;0.50;99.90;;;;;;4974523;28;20756;-83
2022/12/11 05:56:04;;;;;;;7.73;4.03;;;0.40;99.90;;;;;;4956223;28;20222;-83
2022/12/11 05:58:31;;;;;;;18.30;4.23;;;-1.20;99.90;;;;;;4952005;28;20583;-83
2022/12/11 06:00:57;;;;;;;7.13;3.80;;;0.30;99.90;;;;;;4965781;28;20711;-83
2022/12/11 06:03:22;;;;;;;3.20;2.90;;;-1.20;99.90;;;;;;4945763;28;20203;-83
2022/12/11 06:05:48;;;;;;;10.77;5.10;;;-1.20;99.90;;;;;;4950400;28;20211;-84
2022/12/11 06:08:14;;;;;;;22.43;7.07;;;0.30;99.90;;;;;;4956868;28;20216;-83
2022/12/11 06:10:47;;;;;;;24.57;8.00;;;-1.20;99.90;;;;;;4965306;28;20190;-85
2022/12/11 06:13:13;;;;;;;13.97;2.90;;;0.50;99.90;;;;;;4970732;28;20283;-84
2022/12/11 06:15:39;;;;;;;8.23;4.67;;;-1.10;99.90;;;;;;4957713;28;20197;-83
2022/12/11 06:18:04;;;;;;;15.83;5.30;;;-0.40;99.90;;;;;;4935966;28;20195;-84
2022/12/11 06:20:32;;;;;;;13.20;6.40;;;-1.30;99.90;;;;;;4946628;28;20269;-83
2022/12/11 06:22:58;;;;;;;10.10;4.07;;;-1.30;99.90;;;;;;4938451;28;20357;-83
2022/12/11 06:25:23;;;;;;;13.73;4.83;;;1.30;99.90;;;;;;4951920;28;20208;-83
2022/12/11 06:27:49;;;;;;;11.33;4.70;;;-1.30;99.90;;;;;;4973669;28;20194;-86
2022/12/11 06:30:15;;;;;;;5.37;1.87;;;0.70;99.90;;;;;;4958398;28;20570;-84
2022/12/11 06:32:41;;;;;;;3.87;2.37;;;-1.30;99.90;;;;;;4977789;28;20196;-83
2022/12/11 06:35:07;;;;;;;4.07;3.53;;;-0.60;99.90;;;;;;4975277;28;20657;-84
2022/12/11 06:37:35;;;;;;;2.40;2.20;;;-1.30;99.90;;;;;;4941114;29;20231;-84
2022/12/11 06:40:01;;;;;;;3.37;2.57;;;-1.30;99.90;;;;;;4924470;29;20580;-85
2022/12/11 06:42:28;;;;;;;3.60;3.30;;;0.00;99.90;;;;;;4942171;29;20205;-84
2022/12/11 06:44:56;;;;;;;10.27;4.77;;;0.50;99.90;;;;;;4939894;29;20394;-84
2022/12/11 06:47:22;;;;;;;3.63;2.80;;;-1.30;99.90;;;;;;4940562;29;20202;-84
2022/12/11 06:49:47;;;;;;;2.00;1.63;;;-0.20;99.90;;;;;;4957170;29;20552;-85
2022/12/11 06:52:13;;;;;;;5.87;3.37;;;0.00;99.90;;;;;;4952232;28;20187;-85
2022/12/11 06:54:38;;;;;;;5.70;3.00;;;-0.90;99.90;;;;;;4976376;28;20747;-85
2022/12/11 06:57:04;;;;;;;2.07;1.97;;;0.30;99.90;;;;;;4949927;29;20243;-86
2022/12/11 06:59:30;;;;;;;4.50;2.73;;;-1.30;99.90;;;;;;4944249;28;20198;-84
2022/12/11 07:01:55;;;;;;;6.87;3.27;;;-1.30;99.90;;;;;;4956803;28;20655;-85
2022/12/11 07:04:23;;;;;;;3.43;2.37;;;0.00;99.90;;;;;;4958245;28;20202;-83
2022/12/11 07:06:49;;;;;;;4.13;3.47;;;0.50;99.90;;;;;;4940416;29;20193;-84
2022/12/11 07:09:15;;;;;;;5.07;3.53;;;;;;;;;;4958176;28;20196;-86
2022/12/11 07:11:41;;;;;;;5.73;3.37;;;-1.30;99.90;;;;;;4955326;28;20223;-84
2022/12/11 07:14:07;;;;;;;2.23;2.13;;;0.40;99.90;;;;;;4956667;28;20929;-85
2022/12/11 07:16:33;;;;;;;11.73;2.93;;;-1.00;99.90;;;;;;4970014;28;20257;-84
2022/12/11 07:18:59;;;;;;;4.47;2.40;;;-1.30;99.90;;;;;;4942747;28;20287;-86
2022/12/11 07:21:25;;;;;;;4.80;3.50;;;-1.40;99.90;;;;;;4934968;28;20290;-85
2022/12/11 07:23:50;;;;;;;3.60;3.30;;;0.10;99.90;;;;;;4936153;28;20650;-84
2022/12/11 07:26:19;;;;;;;7.23;3.03;;;-1.40;99.90;;;;;;4952823;28;20207;-83
2022/12/11 07:28:45;;;;;;;9.97;4.47;;;-1.40;99.90;;;;;;4931066;28;20640;-83
2022/12/11 07:31:13;;;;;;;4.23;2.57;;;1.00;99.90;;;;;;4943755;28;20218;-84
2022/12/11 07:33:39;;;;;;;10.83;2.87;;;-1.40;99.90;;;;;;4955871;28;20227;-84
2022/12/11 07:36:07;;;;;;;9.10;2.33;;;-1.30;99.90;;;;;;4964609;28;20199;-84
2022/12/11 07:38:33;;;;;;;2.30;2.17;;;-1.30;99.90;;;;;;4926156;28;20231;-83
2022/12/11 07:41:04;;;;;;;3.97;3.33;;;0.30;99.90;;;;;;4953341;28;20195;-84
2022/12/11 07:43:31;;;;;;;3.07;2.87;;;0.30;99.90;;;;;;4961583;28;20189;-85
2022/12/11 07:46:01;;;;;;;1.67;1.67;;;-1.10;99.90;;;;;;4943501;28;20245;-86
2022/12/11 07:48:27;;;;;;;9.47;5.50;;;-0.20;99.90;;;;;;4943189;28;20293;-85
2022/12/11 07:50:52;;;;;;;14.70;7.50;;;-1.10;99.90;;;;;;4922515;28;20624;-82
2022/12/11 07:53:18;;;;;;;15.50;7.07;;;-0.40;99.90;;;;;;4948615;28;20200;-82
2022/12/11 07:55:44;;;;;;;5.97;5.17;;;-1.40;99.90;;;;;;4965718;28;20280;-86
2022/12/11 07:58:09;;;;;;;6.30;3.83;;;-0.50;99.90;;;;;;4959271;28;20236;-83
2022/12/11 08:00:35;;;;;;;7.50;4.40;;;-1.00;99.90;;;;;;4964918;28;20191;-84
2022/12/11 08:03:01;;;;;;;14.93;6.73;;;-1.40;99.90;;;;;;4952054;28;20256;-84
2022/12/11 08:05:26;;;;;;;4.37;3.13;;;-1.40;99.90;;;;;;4966220;28;20233;-83
2022/12/11 08:07:52;;;;;;;6.07;3.77;;;-1.50;99.90;;;;;;4963393;28;20198;-84
2022/12/11 08:10:18;;;;;;;4.97;3.87;;;-1.50;99.90;;;;;;4955558;28;20225;-84
2022/12/11 08:12:43;;;;;;;5.03;4.60;;;-1.40;99.90;;;;;;4952459;28;20286;-84
2022/12/11 08:15:09;;;;;;;13.37;5.67;;;-1.50;99.90;;;;;;4971917;28;20721;-82
2022/12/11 08:17:35;;;;;;;4.43;4.10;;;-1.50;99.90;;;;;;4937310;28;20187;-84
2022/12/11 08:20:01;;;;;;;13.07;5.63;;;-1.50;99.90;;;;;;4928882;28;20559;-84
2022/12/11 08:22:27;;;;;;;6.27;4.00;;;;;;;;;;4965782;28;20243;-83
2022/12/11 08:24:52;;;;;;;9.87;5.60;;;-1.40;99.90;;;;;;4936308;28;20828;-84
2022/12/11 08:27:18;;;;;;;7.77;3.23;;;-0.40;99.90;;;;;;4958979;28;20224;-83
2022/12/11 08:29:44;;;;;;;13.40;5.00;;;0.30;99.90;;;;;;4947386;28;20240;-84
2022/12/11 08:32:12;;;;;;;7.20;4.73;;;-1.40;99.90;;;;;;4939513;28;20267;-83
2022/12/11 08:34:38;;;;;;;7.27;4.03;;;-1.50;99.90;;;;;;4945748;28;20190;-83
2022/12/11 08:37:04;;;;;;;2.20;2.00;;;-1.40;99.90;;;;;;4945260;28;20190;-83
2022/12/11 08:39:29;;;;;;;6.93;2.57;;;-1.00;99.90;;;;;;4959229;28;20641;-83
2022/12/11 08:41:56;;;;;;;4.63;3.20;;;0.00;99.90;;;;;;4961175;28;20194;-85
2022/12/11 08:44:23;;;;;;;7.03;3.27;;;-0.30;99.90;;;;;;4949931;28;20187;-83
2022/12/11 08:46:49;;;;;;;2.23;2.03;;;-1.40;99.90;;;;;;4958303;28;20281;-83
2022/12/11 08:49:15;;;;;;;11.17;5.40;;;-1.40;99.90;;;;;;4941998;28;20638;-83
2022/12/11 08:51:40;;;;;;;3.07;2.77;;;-0.70;99.90;;;;;;4939200;28;20751;-81
2022/12/11 08:54:06;;;;;;;7.37;2.93;;;-0.20;99.90;;;;;;4941614;28;20190;-82
2022/12/11 08:56:31;;;;;;;8.47;3.33;;;0.90;99.90;;;;;;4960666;28;20191;-83
2022/12/11 08:59:01;;;;;;;7.70;2.87;;;-1.10;99.90;;;;;;4939904;28;20232;-82
2022/12/11 09:01:28;;;;;;;11.27;6.17;;;-1.50;99.90;;;;;;4968380;28;20253;-83
2022/12/11 09:03:55;;;;;;;7.00;4.43;;;0.00;99.90;;;;;;4948368;28;20224;-87
2022/12/11 09:06:24;;;;;;;3.57;3.27;;;-1.40;99.90;;;;;;4948369;28;20807;-83
2022/12/11 09:08:51;;;;;;;16.30;5.53;;;-1.10;99.90;;;;;;4961444;28;20655;-83
2022/12/11 09:11:29;;;;;;;8.83;3.73;;;0.30;99.90;;;;;;4945167;28;20828;-84
2022/12/11 09:13:55;;;;;;;5.10;4.60;;;-1.40;99.90;;;;;;4944223;28;20261;-87
2022/12/11 09:16:23;;;;;;;6.60;3.97;;;1.30;99.90;;;;;;4944248;28;20647;-86
2022/12/11 09:18:51;;;;;;;13.00;5.90;;;-0.90;99.90;;;;;;4962432;28;20192;-86
2022/12/11 09:21:19;;;;;;;5.93;4.17;;;1.10;99.90;;;;;;4945452;28;20292;-85
2022/12/11 09:23:45;;;;;;;7.67;4.50;;;1.20;99.90;;;;;;4960222;28;20271;-86
2022/12/11 09:26:14;;;;;;;6.60;3.90;;;-1.50;99.90;;;;;;4939267;28;20223;-86
2022/12/11 09:28:40;;;;;;;5.50;3.40;;;-1.40;99.90;;;;;;4958643;28;20199;-85
2022/12/11 09:31:11;;;;;;;7.00;3.33;;;-0.30;99.90;;;;;;4933894;28;20280;-85
2022/12/11 09:33:37;;;;;;;4.43;3.20;;;0.80;99.90;;;;;;4946585;28;20201;-87
2022/12/11 09:36:03;;;;;;;6.50;3.13;;;0.30;99.90;;;;;;4942139;28;20191;-84
2022/12/11 09:38:30;;;;;;;3.60;3.03;;;-1.50;99.90;;;;;;4950218;28;20538;-85
2022/12/11 09:40:57;;;;;;;8.40;5.43;;;;;;;;;;4964534;28;20197;-85
2022/12/11 09:43:45;;;;;;;4.23;3.23;;;-1.50;99.90;;;;;;4968945;28;20672;-85
2022/12/11 09:46:14;;;;;;;5.70;3.10;;;-1.50;99.90;;;;;;4968468;28;20200;-85
2022/12/11 09:48:46;;;;;;;3.17;2.90;;;-0.70;99.90;;;;;;4948292;28;20183;-86
2022/12/11 09:51:25;;;;;;;5.80;4.70;;;-0.40;99.90;;;;;;4954118;28;20280;-85
2022/12/11 09:53:53;;;;;;;5.33;3.70;;;-0.30;99.90;;;;;;4967244;28;20276;-84
2022/12/11 09:56:26;;;;;;;9.80;5.47;;;0.20;99.90;;;;;;4951058;28;20248;-84
2022/12/11 09:59:19;;;;;;;10.30;6.67;;;-1.20;99.90;;;;;;4953271;28;20767;-88
2022/12/11 10:02:20;;;;;;;8.40;5.30;;;-1.40;99.90;;;;;;4973422;28;20630;-86
2022/12/11 10:04:48;;;;;;;9.10;5.03;;;-1.50;99.90;;;;;;4955133;28;20246;-88
2022/12/11 10:07:37;;;;;;;8.63;3.27;;;-1.00;99.90;;;;;;4968783;28;20221;-86
2022/12/11 10:10:28;;;;;;;3.50;3.03;;;-1.40;99.90;;;;;;4955636;28;20662;-86
2022/12/11 10:13:29;;;;;;;5.10;4.07;;;-1.50;99.90;;;;;;4957014;28;20189;-85
2022/12/11 10:16:04;;;;;;;8.83;5.43;;;-1.40;99.90;;;;;;4961983;28;20195;-86
2022/12/11 10:18:31;;;;;;;10.90;5.30;;;-1.40;99.90;;;;;;4950124;28;20677;-87
2022/12/11 10:21:02;;;;;;;8.13;4.27;;;0.10;99.90;;;;;;4950072;28;20217;-86
2022/12/11 10:23:40;;;;;;;5.80;3.80;;;-1.60;99.90;;;;;;4936231;28;20197;-86
2022/12/11 10:26:18;;;;;;;3.43;2.70;;;-1.30;99.90;;;;;;4952142;28;20246;-87
2022/12/11 10:28:44;;;;;;;13.17;4.37;;;0.20;99.90;;;;;;4968897;28;20186;-87
2022/12/11 10:31:19;;;;;;;6.80;4.27;;;-0.90;99.90;;;;;;4946766;28;20672;-87
2022/12/11 10:33:58;;;;;;;2.90;2.63;;;-1.60;99.90;;;;;;4956724;28;20184;-87
2022/12/11 10:36:36;;;;;;;14.40;6.13;;;-1.50;99.90;;;;;;4951728;28;20197;-88
2022/12/11 10:39:02;;;;;;;3.67;3.30;;;-1.60;99.90;;;;;;4966593;28;20240;-87
2022/12/11 10:41:40;;;;;;;6.37;4.17;;;-1.60;99.90;;;;;;4966443;28;20202;-88
2022/12/11 10:44:19;;;;;;;6.97;5.10;;;-1.70;99.90;;;;;;4970418;28;20191;-87
2022/12/11 10:46:47;;;;;;;8.93;5.13;;;-1.70;99.90;;;;;;4953470;28;20197;-87
2022/12/11 10:49:31;;;;;;;8.83;5.50;;;-0.40;99.90;;;;;;4950395;28;20186;-88
2022/12/11 10:52:00;;;;;;;12.43;6.13;;;-0.40;99.90;;;;;;4967337;28;20204;-87
2022/12/11 10:54:31;;;;;;;7.23;4.60;;;0.00;99.90;;;;;;4962545;28;20555;-86
2022/12/11 10:56:59;;;;;;;7.10;4.37;;;-1.70;99.90;;;;;;4953852;28;20218;-86
2022/12/11 10:59:29;;;;;;;6.23;3.73;;;-0.40;99.90;;;;;;4973172;28;20190;-87
2022/12/11 11:01:56;;;;;;;9.43;5.90;;;-1.70;99.90;;;;;;4950454;28;20175;-86
2022/12/11 11:04:30;;;;;;;7.03;4.30;;;0.00;99.90;;;;;;4963451;28;20226;-86
2022/12/11 11:07:20;;;;;;;11.63;4.40;;;-1.80;99.90;;;;;;4964227;28;20243;-88
2022/12/11 11:09:47;;;;;;;11.33;7.07;;;-0.10;99.90;;;;;;4952862;28;20189;-86
2022/12/11 11:12:27;;;;;;;8.17;5.33;;;-1.90;99.90;;;;;;4964404;28;20196;-85
2022/12/11 11:15:00;;;;;;;5.13;2.60;;;-0.50;99.90;;;;;;4965167;28;20557;-86
2022/12/11 11:17:26;;;;;;;17.57;6.83;;;0.50;99.90;;;;;;4957440;28;20223;-86
2022/12/11 11:19:52;;;;;;;8.23;5.27;;;0.10;99.90;;;;;;4972251;28;20221;-86
2022/12/11 11:22:18;;;;;;;6.67;4.87;;;-1.80;99.90;;;;;;4967481;28;20242;-86
2022/12/11 11:24:55;;;;;;;12.70;7.00;;;-1.60;99.90;;;;;;4961097;28;20215;-88
2022/12/11 11:27:35;;;;;;;5.37;3.83;;;-1.90;99.90;;;;;;4965957;28;20202;-88
2022/12/11 11:30:04;;;;;;;5.40;3.90;;;-1.90;99.90;;;;;;4953061;28;20191;-88
2022/12/11 11:32:35;;;;;;;18.40;5.33;;;-1.90;99.90;;;;;;4948364;28;20179;-87
2022/12/11 11:35:18;;;;;;;7.90;3.23;;;-2.10;99.90;;;;;;4966137;28;20194;-87
2022/12/11 11:37:52;;;;;;;3.00;2.77;;;-1.90;99.90;;;;;;4953732;28;20205;-89
2022/12/11 11:40:24;;;;;;;3.07;2.63;;;-1.90;99.90;;;;;;4952707;28;20191;-90
2022/12/11 11:43:27;;;;;;;12.57;5.63;;;-1.90;99.90;;;;;;4964312;28;20248;-87
2022/12/11 11:46:24;;;;;;;14.23;6.03;;;-1.80;99.90;;;;;;4955199;28;20224;-87
2022/12/11 11:48:50;;;;;;;8.03;6.53;;;;;;;;;;4950108;28;20186;-86
2022/12/11 11:51:25;;;;;;;23.17;9.10;;;-2.00;99.90;;;;;;4946661;28;20190;-86
2022/12/11 11:53:55;;;;;;;7.13;4.80;;;0.50;99.90;;;;;;4963649;28;20200;-86
2022/12/11 11:56:30;;;;;;;9.50;3.80;;;-1.30;99.90;;;;;;4949388;28;20649;-86
2022/12/11 11:59:01;;;;;;;10.07;5.00;;;-1.90;99.90;;;;;;4949019;28;20239;-87
2022/12/11 12:01:27;;;;;;;13.43;7.27;;;-1.90;99.90;;;;;;4962495;28;20180;-87
2022/12/11 12:03:54;;;;;;;6.00;4.83;;;-0.60;99.90;;;;;;4953285;28;20175;-85
2022/12/11 12:07:10;;;;;;;8.63;4.20;;;-1.90;99.90;;;;;;4954799;28;20214;-90
2022/12/11 12:09:42;;;;;;;14.30;6.87;;;-2.00;99.90;;;;;;4944132;28;20212;-89
2022/12/11 12:12:28;;;;;;;10.53;5.90;;;-2.00;99.90;;;;;;4958786;28;20206;-87
2022/12/11 12:15:32;;;;;;;8.43;5.93;;;-2.00;99.90;;;;;;4958953;28;20197;-86
2022/12/11 12:18:13;;;;;;;13.53;5.03;;;-2.00;99.90;;;;;;4961813;28;20189;-87
2022/12/11 12:20:59;;;;;;;15.17;6.50;;;-2.00;99.90;;;;;;4948811;28;20184;-85
2022/12/11 12:23:58;;;;;;;15.63;8.97;;;-2.10;99.90;;;;;;4966245;28;20250;-84
2022/12/11 12:26:40;;;;;;;10.70;5.90;;;-2.10;99.90;;;;;;4971080;28;20209;-84
2022/12/11 12:29:18;;;;;;;14.60;6.43;;;-0.70;99.90;;;;;;4968005;28;20193;-86
2022/12/11 12:32:13;;;;;;;14.83;6.70;;;-1.70;99.90;;;;;;4947639;28;20202;-84
2022/12/11 12:35:01;;;;;;;11.43;6.40;;;-2.10;99.90;;;;;;4968822;28;20187;-85
2022/12/11 12:38:01;;;;;;;6.07;3.37;;;-1.10;99.90;;;;;;4968099;28;20186;-84
2022/12/11 12:40:36;;;;;;;7.80;3.63;;;-2.10;99.90;;;;;;4967964;28;20202;-85
2022/12/11 12:43:17;;;;;;;7.13;4.03;;;-0.80;99.90;;;;;;4962850;28;20181;-85
2022/12/11 12:45:57;;;;;;;13.40;5.00;;;-2.10;99.90;;;;;;4965815;28;21017;-84
2022/12/11 12:48:26;;;;;;;5.93;4.47;;;-2.20;99.90;;;;;;4950130;28;20188;-85
2022/12/11 12:50:52;;;;;;;7.53;5.47;;;-0.50;99.90;;;;;;4962416;28;20246;-85
2022/12/11 12:53:32;;;;;;;11.07;7.17;;;-1.30;99.90;;;;;;4957455;28;20183;-86
2022/12/11 12:55:58;;;;;;;9.03;4.73;;;-2.30;99.90;;;;;;4974829;28;20190;-86
2022/12/11 12:58:44;;;;;;;9.20;5.87;;;0.10;99.90;;;;;;4957193;28;20225;-86
2022/12/11 13:01:15;;;;;;;3.67;3.37;;;-0.80;99.90;;;;;;4966507;28;20203;-85
2022/12/11 13:04:04;;;;;;;9.27;5.27;;;-2.30;99.90;;;;;;4964927;28;20187;-83
2022/12/11 13:06:39;;;;;;;12.10;6.10;;;-2.30;99.90;;;;;;4951578;28;20211;-87
2022/12/11 13:09:17;;;;;;;7.97;4.27;;;-2.30;99.90;;;;;;4953706;28;20184;-82
2022/12/11 13:11:44;;;;;;;15.63;6.87;;;0.30;99.90;;;;;;4945057;28;20245;-85
2022/12/11 13:14:14;;;;;;;12.03;7.80;;;-2.30;99.90;;;;;;4930730;28;20193;-87
2022/12/11 13:16:42;;;;;;;9.10;4.60;;;-2.40;99.90;;;;;;4955267;28;20212;-85